Airfield :
LOGIN :

Register | Disclaimer

   EN    FR    IT 

 










Legend :    VFR   Marginal VFR   IFR   Intensive IFR   Very Intensive IFR
Visi :
Ceiling :
>= 8 km
>= 3000ft
5 to 8 km
1000 to 3000 ft
1500m to 5 km
500 to 1000 ft
800 to 1500m
200 to 500 ft
< 800m
< 200 ft
Symbols :   Thunderstorms  Fog  Heavy snow  Heavy precipitations  Wind > 20 kt
SIGMETs :     Misc.  Thunderstorms  Icing  Turbulence  Mountain Waves  Volcanic Ashes






- Airport Elevation : 135 ft
- IATA code : EDI


EGPH - Edinburgh

CURRENT METAR :
  • 080720Z 21013KT 9999 FEW022 SCT047 08/05 Q1027

EXPIRED METARs :
  • 080650Z 22012KT 9999 BKN046 08/05 Q1027
  • 080620Z 22006KT 9999 BKN040 07/05 Q1028
  • 080550Z 24005KT 9999 BKN043 05/04 Q1028
  • 080520Z 25008KT 9999 FEW030 BKN043 06/04 Q1028
  • 080450Z 21003KT 190V260 9999 BKN032 04/02 Q1029

TAF TAF EGPH
Valid from the 08 at 06:00 until the 09 at 06:00 UTC


080455Z 0806/0906 23009KT 9999 SCT030
BECMG 0806/0809 22018G28KT
PROB30
TEMPO 0809/0817 23022G38KT
PROB40
TEMPO 0817/0820 23025G40KT
TEMPO 0818/0821 6000 RA BKN012
PROB30
TEMPO 0818/0821 3500 +RA BKN008
BECMG 0821/0824 23012KT
TEMPO 0900/0906 24015G27KT
ATIS : +44 131 339 2823



MET'MAP, your aeronautical weather chart ! - Copyright ORBIFLY December 2007 - Disclaimer

ORBIFLY MET'MAP TEAM :

Programming & Development : Alexandra Zaïnal
Original concept : Baudouin d'Aumeries
Technical & hardware support : Manuel Goepfert
Assistance : Marc-Olivier Méhu




SOURCES & CREDITS :

   NOAA